Terminal Aerodrome Forecast
Issued by NWS Wilmington, OH

Current Version | Previous Version | Graphics & Text | Print | Product List | Glossary On
Versions: 1 2 3 4 5 6 7 8 9 10 11 12 13 14 15 16 17 18 19 20
000
FTUS41 KILN 181700
TAFCMH
TAF
KCMH 181740Z 1818/1918 06006KT P6SM FEW060 SCT200 OVC250
     FM182300 06008KT P6SM SCT120 OVC250
     FM191100 10011KT P6SM FEW050 OVC120
     FM191400 10012G20KT P6SM -SHRA SCT040 OVC060
     FM191700 13014G24KT 5SM -SHRA OVC025=

USA.gov is the U.S. government's official web portal to all federal, state and local government web resources and services.